Marion, Texas
Current Conditions -  °F | °C
As of 5:58 AM on Monday 24 Nov 2014 (Local Time) from KRND Reporting Station
Clear Clear  
Wind Chill: 47°   Ceiling: Unl
Heat Index: 49°   Visibility: 10mi
Dew Point: 35°   Wind: 5mph
Humidity: 58%   Direction: 20°NNE
Pressure: 29.97"   Gusts: NA
Location:  29.57°N, 98.14°W
Report Text: KRND 241158Z AUTO 02004KT 10SM CLR 09/02 A2997 RMK AO2 SLP146 T00940015 10160 20094 53017
Loading
Personal Weather Stations






























Interactive Weather Map New forecast layout! Learn more

10-Day Weather Forecast

Advertisements
Track Severe Weather on mobile